sensor_id;sensor_type;location;lat;lon;timestamp;pressure;altitude;pressure_sealevel;temperature;humidity
10014;BME280;45684;48.358;10.746;2022-10-17T00:00:09;96805.97;;;12.75;100.00
10014;BME280;45684;48.358;10.746;2022-10-17T00:02:37;96803.09;;;12.72;100.00
10014;BME280;45684;48.358;10.746;2022-10-17T00:05:05;96810.91;;;12.65;100.00
10014;BME280;45684;48.358;10.746;2022-10-17T00:07:33;96812.50;;;12.66;100.00
10014;BME280;45684;48.358;10.746;2022-10-17T00:10:00;96809.47;;;12.67;100.00
10014;BME280;45684;48.358;10.746;2022-10-17T00:12:28;96808.66;;;12.67;100.00
10014;BME280;45684;48.358;10.746;2022-10-17T00:14:58;96814.88;;;12.67;100.00
10014;BME280;45684;48.358;10.746;2022-10-17T00:17:25;96816.50;;;12.68;100.00
10014;BME280;45684;48.358;10.746;2022-10-17T00:19:54;96819.09;;;12.73;100.00
10014;BME280;45684;48.358;10.746;2022-10-17T00:22:21;96817.47;;;12.72;100.00
10014;BME280;45684;48.358;10.746;2022-10-17T00:24:49;96817.47;;;12.72;100.00
10014;BME280;45684;48.358;10.746;2022-10-17T00:27:17;96819.09;;;12.73;100.00
10014;BME280;45684;48.358;10.746;2022-10-17T00:29:47;96819.09;;;12.73;100.00
10014;BME280;45684;48.358;10.746;2022-10-17T00:32:16;96821.00;;;12.73;100.00
10014;BME280;45684;48.358;10.746;2022-10-17T00:34:44;96825.44;;;12.69;100.00
10014;BME280;45684;48.358;10.746;2022-10-17T00:37:12;96822.72;;;12.69;100.00
10014;BME280;45684;48.358;10.746;2022-10-17T00:39:39;96830.88;;;12.69;100.00
10014;BME280;45684;48.358;10.746;2022-10-17T00:42:09;96829.72;;;12.61;100.00
10014;BME280;45684;48.358;10.746;2022-10-17T00:45:00;96833.72;;;12.64;100.00
10014;BME280;45684;48.358;10.746;2022-10-17T00:47:30;96827.31;;;12.60;100.00
10014;BME280;45684;48.358;10.746;2022-10-17T00:50:00;96831.63;;;12.61;100.00
10014;BME280;45684;48.358;10.746;2022-10-17T00:52:33;96837.38;;;12.59;100.00
10014;BME280;45684;48.358;10.746;2022-10-17T00:55:04;96841.03;;;12.55;100.00
10014;BME280;45684;48.358;10.746;2022-10-17T00:57:35;96837.00;;;12.52;100.00
10014;BME280;45684;48.358;10.746;2022-10-17T01:00:07;96841.66;;;12.51;100.00
10014;BME280;45684;48.358;10.746;2022-10-17T01:02:37;96841.47;;;12.48;100.00
10014;BME280;45684;48.358;10.746;2022-10-17T01:05:06;96845.28;;;12.47;100.00
10014;BME280;45684;48.358;10.746;2022-10-17T01:07:34;96850.09;;;12.50;100.00
10014;BME280;45684;48.358;10.746;2022-10-17T01:10:05;96846.88;;;12.48;100.00
10014;BME280;45684;48.358;10.746;2022-10-17T01:12:40;96849.13;;;12.46;100.00
10014;BME280;45684;48.358;10.746;2022-10-17T01:15:20;96847.81;;;12.43;100.00
10014;BME280;45684;48.358;10.746;2022-10-17T01:18:03;96851.59;;;12.34;100.00
10014;BME280;45684;48.358;10.746;2022-10-17T01:20:57;96847.22;;;12.24;100.00
10014;BME280;45684;48.358;10.746;2022-10-17T01:23:37;96844.97;;;12.17;100.00
10014;BME280;45684;48.358;10.746;2022-10-17T01:26:15;96841.56;;;12.12;100.00
10014;BME280;45684;48.358;10.746;2022-10-17T01:29:00;96849.03;;;12.06;100.00
10014;BME280;45684;48.358;10.746;2022-10-17T01:31:38;96836.09;;;12.03;100.00
10014;BME280;45684;48.358;10.746;2022-10-17T01:34:13;96835.28;;;12.03;100.00
10014;BME280;45684;48.358;10.746;2022-10-17T01:36:48;96834.19;;;12.04;100.00
10014;BME280;45684;48.358;10.746;2022-10-17T01:39:22;96848.22;;;12.06;100.00
10014;BME280;45684;48.358;10.746;2022-10-17T01:41:59;96840.41;;;12.04;100.00
10014;BME280;45684;48.358;10.746;2022-10-17T01:44:33;96831.28;;;12.00;100.00
10014;BME280;45684;48.358;10.746;2022-10-17T01:47:07;96825.06;;;11.99;100.00
10014;BME280;45684;48.358;10.746;2022-10-17T01:49:38;96824.75;;;12.01;100.00
10014;BME280;45684;48.358;10.746;2022-10-17T01:52:09;96815.34;;;11.98;100.00
10014;BME280;45684;48.358;10.746;2022-10-17T01:54:40;96819.47;;;11.96;100.00
10014;BME280;45684;48.358;10.746;2022-10-17T01:57:13;96817.06;;;11.94;100.00
10014;BME280;45684;48.358;10.746;2022-10-17T01:59:45;96819.78;;;11.94;100.00
10014;BME280;45684;48.358;10.746;2022-10-17T02:02:17;96813.00;;;11.83;100.00
10014;BME280;45684;48.358;10.746;2022-10-17T02:04:47;96818.34;;;11.61;100.00
10014;BME280;45684;48.358;10.746;2022-10-17T02:07:17;96808.44;;;11.56;100.00
10014;BME280;45684;48.358;10.746;2022-10-17T02:09:45;96817.81;;;11.50;100.00
10014;BME280;45684;48.358;10.746;2022-10-17T02:12:34;96804.69;;;11.43;100.00
10014;BME280;45684;48.358;10.746;2022-10-17T02:15:22;96800.31;;;11.34;100.00
10014;BME280;45684;48.358;10.746;2022-10-17T02:18:06;96798.09;;;11.36;100.00
10014;BME280;45684;48.358;10.746;2022-10-17T02:20:48;96798.53;;;11.29;100.00
10014;BME280;45684;48.358;10.746;2022-10-17T02:23:23;96804.13;;;11.19;100.00
10014;BME280;45684;48.358;10.746;2022-10-17T02:25:57;96797.44;;;11.16;100.00
10014;BME280;45684;48.358;10.746;2022-10-17T02:28:30;96810.66;;;11.18;100.00
10014;BME280;45684;48.358;10.746;2022-10-17T02:31:03;96798.03;;;11.13;100.00
10014;BME280;45684;48.358;10.746;2022-10-17T02:33:38;96798.16;;;11.08;100.00
10014;BME280;45684;48.358;10.746;2022-10-17T02:36:11;96808.56;;;11.15;100.00
10014;BME280;45684;48.358;10.746;2022-10-17T02:38:41;96809.16;;;11.12;100.00
10014;BME280;45684;48.358;10.746;2022-10-17T02:41:14;96813.16;;;11.14;100.00
10014;BME280;45684;48.358;10.746;2022-10-17T02:43:44;96814.78;;;11.15;100.00
10014;BME280;45684;48.358;10.746;2022-10-17T02:46:15;96821.09;;;11.11;100.00
10014;BME280;45684;48.358;10.746;2022-10-17T02:48:50;96819.31;;;11.06;100.00
10014;BME280;45684;48.358;10.746;2022-10-17T02:51:26;96821.50;;;11.04;100.00
10014;BME280;45684;48.358;10.746;2022-10-17T02:54:04;96821.03;;;11.02;100.00
10014;BME280;45684;48.358;10.746;2022-10-17T02:56:40;96819.81;;;10.94;100.00
10014;BME280;45684;48.358;10.746;2022-10-17T02:59:11;96824.44;;;10.94;100.00
10014;BME280;45684;48.358;10.746;2022-10-17T03:01:42;96828.84;;;10.90;100.00
10014;BME280;45684;48.358;10.746;2022-10-17T03:04:13;96836.34;;;10.93;100.00
10014;BME280;45684;48.358;10.746;2022-10-17T03:06:41;96834.13;;;10.95;100.00
10014;BME280;45684;48.358;10.746;2022-10-17T03:09:09;96829.72;;;10.99;100.00
10014;BME280;45684;48.358;10.746;2022-10-17T03:11:37;96827.81;;;10.99;100.00
10014;BME280;45684;48.358;10.746;2022-10-17T03:14:06;96823.72;;;11.02;100.00
10014;BME280;45684;48.358;10.746;2022-10-17T03:16:34;96828.81;;;11.04;100.00
10014;BME280;45684;48.358;10.746;2022-10-17T03:19:02;96830.72;;;11.03;100.00
10014;BME280;45684;48.358;10.746;2022-10-17T03:21:33;96838.97;;;10.98;100.00
10014;BME280;45684;48.358;10.746;2022-10-17T03:24:01;96846.28;;;10.97;100.00
10014;BME280;45684;48.358;10.746;2022-10-17T03:26:29;96854.78;;;10.91;100.00
10014;BME280;45684;48.358;10.746;2022-10-17T03:28:57;96852.59;;;10.93;100.00
10014;BME280;45684;48.358;10.746;2022-10-17T03:31:27;96855.00;;;10.94;100.00
10014;BME280;45684;48.358;10.746;2022-10-17T03:33:55;96855.00;;;10.94;100.00
10014;BME280;45684;48.358;10.746;2022-10-17T03:36:23;96861.81;;;10.92;100.00
10014;BME280;45684;48.358;10.746;2022-10-17T03:38:54;96860.19;;;10.91;100.00
10014;BME280;45684;48.358;10.746;2022-10-17T03:41:22;96863.72;;;10.91;100.00
10014;BME280;45684;48.358;10.746;2022-10-17T03:43:51;96863.00;;;10.86;100.00
10014;BME280;45684;48.358;10.746;2022-10-17T03:46:20;96858.59;;;10.76;100.00
10014;BME280;45684;48.358;10.746;2022-10-17T03:48:47;96864.19;;;10.66;100.00
10014;BME280;45684;48.358;10.746;2022-10-17T03:51:15;96866.00;;;10.70;100.00
10014;BME280;45684;48.358;10.746;2022-10-17T03:53:48;96858.09;;;10.60;100.00
10014;BME280;45684;48.358;10.746;2022-10-17T03:56:19;96864.69;;;10.54;100.00
10014;BME280;45684;48.358;10.746;2022-10-17T03:59:00;96847.56;;;10.45;100.00
10014;BME280;45684;48.358;10.746;2022-10-17T04:01:31;96863.97;;;10.48;100.00
10014;BME280;45684;48.358;10.746;2022-10-17T04:03:59;96857.97;;;10.52;100.00
10014;BME280;45684;48.358;10.746;2022-10-17T04:06:30;96861.16;;;10.54;100.00
10014;BME280;45684;48.358;10.746;2022-10-17T04:08:59;96859.19;;;10.45;100.00
10014;BME280;45684;48.358;10.746;2022-10-17T04:11:45;96872.00;;;10.40;100.00
10014;BME280;45684;48.358;10.746;2022-10-17T04:14:12;96871.88;;;10.31;100.00
10014;BME280;45684;48.358;10.746;2022-10-17T04:16:41;96868.44;;;10.26;100.00
10014;BME280;45684;48.358;10.746;2022-10-17T04:19:16;96869.53;;;10.25;100.00
10014;BME280;45684;48.358;10.746;2022-10-17T04:21:45;96880.09;;;10.21;100.00
10014;BME280;45684;48.358;10.746;2022-10-17T04:24:14;96877.91;;;10.23;100.00
10014;BME280;45684;48.358;10.746;2022-10-17T04:26:49;96881.72;;;10.22;100.00
10014;BME280;45684;48.358;10.746;2022-10-17T04:29:18;96887.66;;;10.24;100.00
10014;BME280;45684;48.358;10.746;2022-10-17T04:31:49;96884.69;;;10.20;100.00
10014;BME280;45684;48.358;10.746;2022-10-17T04:34:22;96890.63;;;10.22;100.00
10014;BME280;45684;48.358;10.746;2022-10-17T04:36:50;96889.78;;;10.27;100.00
10014;BME280;45684;48.358;10.746;2022-10-17T04:39:18;96896.56;;;10.25;100.00
10014;BME280;45684;48.358;10.746;2022-10-17T04:41:46;96891.53;;;10.18;100.00
10014;BME280;45684;48.358;10.746;2022-10-17T04:44:15;96893.91;;;10.19;100.00
10014;BME280;45684;48.358;10.746;2022-10-17T04:46:49;96885.50;;;10.21;100.00
10014;BME280;45684;48.358;10.746;2022-10-17T04:49:18;96895.50;;;10.20;100.00
10014;BME280;45684;48.358;10.746;2022-10-17T04:51:50;96891.94;;;10.25;100.00
10014;BME280;45684;48.358;10.746;2022-10-17T04:54:24;96901.16;;;10.24;100.00
10014;BME280;45684;48.358;10.746;2022-10-17T04:57:02;96901.97;;;10.25;100.00
10014;BME280;45684;48.358;10.746;2022-10-17T04:59:31;96892.97;;;10.29;100.00
10014;BME280;45684;48.358;10.746;2022-10-17T05:02:17;96894.38;;;10.27;100.00
10014;BME280;45684;48.358;10.746;2022-10-17T05:04:45;96907.38;;;10.25;100.00
10014;BME280;45684;48.358;10.746;2022-10-17T05:07:14;96906.56;;;10.24;100.00
10014;BME280;45684;48.358;10.746;2022-10-17T05:09:42;96903.63;;;10.20;100.00
10014;BME280;45684;48.358;10.746;2022-10-17T05:12:10;96898.81;;;10.17;100.00
10014;BME280;45684;48.358;10.746;2022-10-17T05:14:43;96900.41;;;10.18;100.00
10014;BME280;45684;48.358;10.746;2022-10-17T05:17:12;96894.44;;;10.21;100.00
10014;BME280;45684;48.358;10.746;2022-10-17T05:19:40;96902.81;;;10.20;100.00
10014;BME280;45684;48.358;10.746;2022-10-17T05:22:08;96899.31;;;10.19;100.00
10014;BME280;45684;48.358;10.746;2022-10-17T05:24:35;96904.22;;;10.17;100.00
10014;BME280;45684;48.358;10.746;2022-10-17T05:27:03;96910.16;;;10.01;100.00
10014;BME280;45684;48.358;10.746;2022-10-17T05:29:31;96904.38;;;9.88;100.00
10014;BME280;45684;48.358;10.746;2022-10-17T05:32:08;96902.56;;;9.84;100.00
10014;BME280;45684;48.358;10.746;2022-10-17T05:34:36;96906.53;;;9.73;100.00
10014;BME280;45684;48.358;10.746;2022-10-17T05:37:04;96901.91;;;9.73;100.00
10014;BME280;45684;48.358;10.746;2022-10-17T05:39:34;96901.41;;;9.71;100.00
10014;BME280;45684;48.358;10.746;2022-10-17T05:42:03;96911.94;;;9.73;100.00
10014;BME280;45684;48.358;10.746;2022-10-17T05:44:32;96907.63;;;9.71;100.00
10014;BME280;45684;48.358;10.746;2022-10-17T05:47:00;96918.94;;;9.74;100.00
10014;BME280;45684;48.358;10.746;2022-10-17T05:49:29;96908.72;;;9.70;100.00
10014;BME280;45684;48.358;10.746;2022-10-17T05:52:14;96922.72;;;9.73;100.00
10014;BME280;45684;48.358;10.746;2022-10-17T05:54:56;96915.44;;;9.73;100.00
10014;BME280;45684;48.358;10.746;2022-10-17T05:57:24;96927.56;;;9.76;100.00
10014;BME280;45684;48.358;10.746;2022-10-17T05:59:52;96924.56;;;9.77;100.00
10014;BME280;45684;48.358;10.746;2022-10-17T06:02:20;96930.25;;;9.76;100.00
10014;BME280;45684;48.358;10.746;2022-10-17T06:04:49;96932.66;;;9.77;100.00
10014;BME280;45684;48.358;10.746;2022-10-17T06:07:19;96932.97;;;9.76;100.00
10014;BME280;45684;48.358;10.746;2022-10-17T06:09:47;96931.34;;;9.75;100.00
10014;BME280;45684;48.358;10.746;2022-10-17T06:12:15;96937.25;;;9.77;100.00
10014;BME280;45684;48.358;10.746;2022-10-17T06:14:44;96944.78;;;9.80;100.00
10014;BME280;45684;48.358;10.746;2022-10-17T06:17:13;96934.97;;;9.84;100.00
10014;BME280;45684;48.358;10.746;2022-10-17T06:19:43;96942.09;;;9.80;100.00
10014;BME280;45684;48.358;10.746;2022-10-17T06:22:14;96943.38;;;9.82;100.00
10014;BME280;45684;48.358;10.746;2022-10-17T06:24:45;96944.91;;;9.88;100.00
10014;BME280;45684;48.358;10.746;2022-10-17T06:27:14;96949.66;;;9.96;100.00
10014;BME280;45684;48.358;10.746;2022-10-17T06:29:41;96949.31;;;10.03;100.00
10014;BME280;45684;48.358;10.746;2022-10-17T06:32:09;96950.53;;;10.11;100.00
10014;BME280;45684;48.358;10.746;2022-10-17T06:34:43;96952.09;;;10.17;100.00
10014;BME280;45684;48.358;10.746;2022-10-17T06:37:10;96957.09;;;10.23;100.00
10014;BME280;45684;48.358;10.746;2022-10-17T06:39:41;96965.69;;;10.31;100.00
10014;BME280;45684;48.358;10.746;2022-10-17T06:42:15;96968.00;;;10.37;100.00
10014;BME280;45684;48.358;10.746;2022-10-17T06:45:02;96975.72;;;10.44;100.00
10014;BME280;45684;48.358;10.746;2022-10-17T06:48:00;96979.38;;;10.53;100.00
10014;BME280;45684;48.358;10.746;2022-10-17T06:50:41;96986.31;;;10.59;100.00
10014;BME280;45684;48.358;10.746;2022-10-17T06:53:21;96993.25;;;10.65;100.00
10014;BME280;45684;48.358;10.746;2022-10-17T06:56:25;96984.44;;;10.73;100.00
10014;BME280;45684;48.358;10.746;2022-10-17T06:59:07;96993.50;;;10.83;100.00
10014;BME280;45684;48.358;10.746;2022-10-17T07:01:37;97002.53;;;10.92;100.00
10014;BME280;45684;48.358;10.746;2022-10-17T07:04:10;96994.81;;;10.99;100.00
10014;BME280;45684;48.358;10.746;2022-10-17T07:06:38;96993.66;;;11.05;100.00
10014;BME280;45684;48.358;10.746;2022-10-17T07:09:16;96996.44;;;11.14;100.00
10014;BME280;45684;48.358;10.746;2022-10-17T07:11:47;97005.00;;;11.21;100.00
10014;BME280;45684;48.358;10.746;2022-10-17T07:14:17;96998.09;;;11.29;100.00
10014;BME280;45684;48.358;10.746;2022-10-17T07:16:46;97004.41;;;11.38;100.00
10014;BME280;45684;48.358;10.746;2022-10-17T07:19:21;97009.41;;;11.44;100.00
10014;BME280;45684;48.358;10.746;2022-10-17T07:21:49;97006.59;;;11.63;100.00
10014;BME280;45684;48.358;10.746;2022-10-17T07:24:17;97009.72;;;11.70;100.00
10014;BME280;45684;48.358;10.746;2022-10-17T07:26:51;97014.22;;;11.75;100.00
10014;BME280;45684;48.358;10.746;2022-10-17T07:29:19;97014.13;;;11.80;100.00
10014;BME280;45684;48.358;10.746;2022-10-17T07:31:59;97012.50;;;11.93;100.00
10014;BME280;45684;48.358;10.746;2022-10-17T07:34:29;97023.25;;;11.98;100.00
10014;BME280;45684;48.358;10.746;2022-10-17T07:36:57;97026.03;;;12.07;100.00
10014;BME280;45684;48.358;10.746;2022-10-17T07:39:25;97024.53;;;12.14;100.00
10014;BME280;45684;48.358;10.746;2022-10-17T07:41:55;97023.81;;;12.22;100.00
10014;BME280;45684;48.358;10.746;2022-10-17T07:44:24;97024.69;;;12.32;100.00
10014;BME280;45684;48.358;10.746;2022-10-17T07:46:53;97025.88;;;12.39;100.00
10014;BME280;45684;48.358;10.746;2022-10-17T07:49:20;97024.91;;;12.58;100.00
10014;BME280;45684;48.358;10.746;2022-10-17T07:51:48;97031.81;;;12.64;100.00
10014;BME280;45684;48.358;10.746;2022-10-17T07:54:16;97019.91;;;12.73;100.00
10014;BME280;45684;48.358;10.746;2022-10-17T07:56:44;97025.88;;;12.84;100.00
10014;BME280;45684;48.358;10.746;2022-10-17T07:59:17;97023.44;;;12.96;100.00
10014;BME280;45684;48.358;10.746;2022-10-17T08:01:45;97030.19;;;13.08;100.00
10014;BME280;45684;48.358;10.746;2022-10-17T08:04:13;97031.84;;;13.17;100.00
10014;BME280;45684;48.358;10.746;2022-10-17T08:06:42;97025.03;;;13.28;100.00
10014;BME280;45684;48.358;10.746;2022-10-17T08:09:09;97027.19;;;13.40;100.00
10014;BME280;45684;48.358;10.746;2022-10-17T08:11:37;97033.31;;;13.55;100.00
10014;BME280;45684;48.358;10.746;2022-10-17T08:14:05;97019.94;;;13.67;100.00
10014;BME280;45684;48.358;10.746;2022-10-17T08:16:35;97018.22;;;13.79;100.00
10014;BME280;45684;48.358;10.746;2022-10-17T08:19:03;97024.66;;;13.92;100.00
10014;BME280;45684;48.358;10.746;2022-10-17T08:21:30;97026.13;;;14.07;100.00
10014;BME280;45684;48.358;10.746;2022-10-17T08:23:58;97027.09;;;14.20;100.00
10014;BME280;45684;48.358;10.746;2022-10-17T08:26:28;97028.56;;;14.35;100.00
10014;BME280;45684;48.358;10.746;2022-10-17T08:28:56;97035.81;;;14.48;100.00
10014;BME280;45684;48.358;10.746;2022-10-17T08:31:23;97034.50;;;14.63;100.00
10014;BME280;45684;48.358;10.746;2022-10-17T08:33:54;97038.66;;;14.77;100.00
10014;BME280;45684;48.358;10.746;2022-10-17T08:36:21;97039.78;;;14.94;100.00
10014;BME280;45684;48.358;10.746;2022-10-17T08:38:49;97041.03;;;15.05;100.00
10014;BME280;45684;48.358;10.746;2022-10-17T08:41:35;97050.31;;;15.21;100.00
10014;BME280;45684;48.358;10.746;2022-10-17T08:44:14;97044.00;;;15.38;100.00
10014;BME280;45684;48.358;10.746;2022-10-17T08:46:46;97043.94;;;15.55;100.00
10014;BME280;45684;48.358;10.746;2022-10-17T08:49:22;97045.84;;;15.72;100.00
10014;BME280;45684;48.358;10.746;2022-10-17T08:51:57;97049.16;;;15.87;100.00
10014;BME280;45684;48.358;10.746;2022-10-17T08:54:35;97045.84;;;16.02;100.00
10014;BME280;45684;48.358;10.746;2022-10-17T08:57:10;97047.22;;;16.17;100.00
10014;BME280;45684;48.358;10.746;2022-10-17T08:59:38;97057.38;;;16.37;100.00
10014;BME280;45684;48.358;10.746;2022-10-17T09:02:20;97051.78;;;16.54;100.00
10014;BME280;45684;48.358;10.746;2022-10-17T09:04:59;97051.19;;;16.70;100.00
10014;BME280;45684;48.358;10.746;2022-10-17T09:07:40;97051.06;;;16.87;100.00
10014;BME280;45684;48.358;10.746;2022-10-17T09:10:16;97057.81;;;17.02;100.00
10014;BME280;45684;48.358;10.746;2022-10-17T09:12:50;97055.16;;;17.14;100.00
10014;BME280;45684;48.358;10.746;2022-10-17T09:15:33;97067.38;;;17.29;100.00
10014;BME280;45684;48.358;10.746;2022-10-17T09:18:09;97065.59;;;17.45;100.00
10014;BME280;45684;48.358;10.746;2022-10-17T09:20:44;97071.91;;;17.58;100.00
10014;BME280;45684;48.358;10.746;2022-10-17T09:23:16;97064.66;;;17.74;100.00
10014;BME280;45684;48.358;10.746;2022-10-17T09:25:48;97070.16;;;17.87;100.00
10014;BME280;45684;48.358;10.746;2022-10-17T09:28:20;97062.84;;;18.03;100.00
10014;BME280;45684;48.358;10.746;2022-10-17T09:30:55;97061.34;;;18.18;100.00
10014;BME280;45684;48.358;10.746;2022-10-17T09:33:25;97061.78;;;18.32;100.00
10014;BME280;45684;48.358;10.746;2022-10-17T09:36:19;97058.59;;;18.42;100.00
10014;BME280;45684;48.358;10.746;2022-10-17T09:38:49;97059.72;;;18.53;100.00
10014;BME280;45684;48.358;10.746;2022-10-17T09:41:19;97063.22;;;18.66;100.00
10014;BME280;45684;48.358;10.746;2022-10-17T09:44:14;97074.41;;;18.73;100.00
10014;BME280;45684;48.358;10.746;2022-10-17T09:46:49;97069.09;;;18.93;99.04
10014;BME280;45684;48.358;10.746;2022-10-17T09:49:25;97063.47;;;19.01;97.63
10014;BME280;45684;48.358;10.746;2022-10-17T09:51:55;97056.22;;;19.21;98.79
10014;BME280;45684;48.358;10.746;2022-10-17T09:54:26;97069.25;;;19.40;98.52
10014;BME280;45684;48.358;10.746;2022-10-17T09:56:57;97068.84;;;19.54;94.41
10014;BME280;45684;48.358;10.746;2022-10-17T09:59:34;97075.78;;;19.79;95.76
10014;BME280;45684;48.358;10.746;2022-10-17T10:02:15;97074.91;;;19.91;95.43
10014;BME280;45684;48.358;10.746;2022-10-17T10:04:59;97067.41;;;20.23;94.71
10014;BME280;45684;48.358;10.746;2022-10-17T10:07:34;97075.00;;;20.46;89.02
10014;BME280;45684;48.358;10.746;2022-10-17T10:10:04;97076.44;;;20.55;86.92
10014;BME280;45684;48.358;10.746;2022-10-17T10:12:34;97076.19;;;20.80;85.44
10014;BME280;45684;48.358;10.746;2022-10-17T10:15:30;97085.38;;;21.07;84.36
10014;BME280;45684;48.358;10.746;2022-10-17T10:17:59;97074.00;;;21.47;84.96
10014;BME280;45684;48.358;10.746;2022-10-17T10:20:32;97078.69;;;21.89;83.52
10014;BME280;45684;48.358;10.746;2022-10-17T10:23:12;97066.31;;;22.02;80.08
10014;BME280;45684;48.358;10.746;2022-10-17T10:25:51;97071.06;;;22.28;79.12
10014;BME280;45684;48.358;10.746;2022-10-17T10:28:22;97068.25;;;22.48;75.33
10014;BME280;45684;48.358;10.746;2022-10-17T10:30:53;97064.75;;;22.81;74.74
10014;BME280;45684;48.358;10.746;2022-10-17T10:33:25;97067.13;;;23.12;70.48
10014;BME280;45684;48.358;10.746;2022-10-17T10:35:56;97064.16;;;23.28;66.71
10014;BME280;45684;48.358;10.746;2022-10-17T10:38:27;97063.88;;;23.40;64.00
10014;BME280;45684;48.358;10.746;2022-10-17T10:40:56;97060.66;;;23.65;65.43
10014;BME280;45684;48.358;10.746;2022-10-17T10:43:32;97055.16;;;23.72;63.07
10014;BME280;45684;48.358;10.746;2022-10-17T10:46:03;97051.63;;;23.72;60.04
10014;BME280;45684;48.358;10.746;2022-10-17T10:48:34;97061.03;;;24.08;61.98
10014;BME280;45684;48.358;10.746;2022-10-17T10:51:04;97058.84;;;24.35;61.51
10014;BME280;45684;48.358;10.746;2022-10-17T10:53:43;97055.94;;;24.68;59.80
10014;BME280;45684;48.358;10.746;2022-10-17T10:56:16;97061.53;;;24.83;58.25
10014;BME280;45684;48.358;10.746;2022-10-17T10:58:55;97059.19;;;24.88;57.80
10014;BME280;45684;48.358;10.746;2022-10-17T11:01:29;97062.31;;;24.83;54.64
10014;BME280;45684;48.358;10.746;2022-10-17T11:04:11;97059.97;;;24.89;55.68
10014;BME280;45684;48.358;10.746;2022-10-17T11:06:44;97060.66;;;24.68;54.08
10014;BME280;45684;48.358;10.746;2022-10-17T11:09:27;97066.22;;;24.75;54.41
10014;BME280;45684;48.358;10.746;2022-10-17T11:12:04;97059.97;;;24.82;55.71
10014;BME280;45684;48.358;10.746;2022-10-17T11:14:41;97056.78;;;24.83;54.17
10014;BME280;45684;48.358;10.746;2022-10-17T11:17:18;97054.47;;;24.92;56.31
10014;BME280;45684;48.358;10.746;2022-10-17T11:20:05;97046.59;;;25.02;57.30
10014;BME280;45684;48.358;10.746;2022-10-17T11:22:40;97051.31;;;24.90;54.57
10014;BME280;45684;48.358;10.746;2022-10-17T11:25:20;97045.06;;;25.08;54.59
10014;BME280;45684;48.358;10.746;2022-10-17T11:27:49;97039.59;;;25.29;51.96
10014;BME280;45684;48.358;10.746;2022-10-17T11:30:17;97046.78;;;25.52;53.26
10014;BME280;45684;48.358;10.746;2022-10-17T11:32:47;97049.16;;;25.64;51.83
10014;BME280;45684;48.358;10.746;2022-10-17T11:35:19;97049.22;;;25.78;52.71
10014;BME280;45684;48.358;10.746;2022-10-17T11:37:51;97039.31;;;25.81;52.12
10014;BME280;45684;48.358;10.746;2022-10-17T11:40:26;97050.38;;;25.70;52.31
10014;BME280;45684;48.358;10.746;2022-10-17T11:42:59;97055.47;;;25.50;52.71
10014;BME280;45684;48.358;10.746;2022-10-17T11:45:34;97055.81;;;25.31;54.19
10014;BME280;45684;48.358;10.746;2022-10-17T11:48:05;97047.56;;;25.49;54.10
10014;BME280;45684;48.358;10.746;2022-10-17T11:50:41;97047.59;;;25.56;53.79
10014;BME280;45684;48.358;10.746;2022-10-17T11:53:42;97043.19;;;25.40;52.34
10014;BME280;45684;48.358;10.746;2022-10-17T11:56:14;97041.19;;;25.34;54.83
10014;BME280;45684;48.358;10.746;2022-10-17T11:58:50;97045.53;;;25.31;55.11
10014;BME280;45684;48.358;10.746;2022-10-17T12:01:28;97052.69;;;25.32;55.52
10014;BME280;45684;48.358;10.746;2022-10-17T12:04:22;97047.53;;;25.34;56.33
10014;BME280;45684;48.358;10.746;2022-10-17T12:07:03;97044.00;;;25.55;55.68
10014;BME280;45684;48.358;10.746;2022-10-17T12:09:41;97041.28;;;25.69;55.50
10014;BME280;45684;48.358;10.746;2022-10-17T12:12:24;97040.13;;;25.88;54.29
10014;BME280;45684;48.358;10.746;2022-10-17T12:14:54;97034.19;;;25.86;55.37
10014;BME280;45684;48.358;10.746;2022-10-17T12:17:42;97039.66;;;25.68;54.73
10014;BME280;45684;48.358;10.746;2022-10-17T12:20:25;97046.41;;;25.67;54.88
10014;BME280;45684;48.358;10.746;2022-10-17T12:22:55;97039.66;;;25.58;57.43
10014;BME280;45684;48.358;10.746;2022-10-17T12:25:25;97050.34;;;25.63;59.72
10014;BME280;45684;48.358;10.746;2022-10-17T12:28:10;97047.56;;;25.59;56.08
10014;BME280;45684;48.358;10.746;2022-10-17T12:30:49;97044.03;;;25.69;55.73
10014;BME280;45684;48.358;10.746;2022-10-17T12:33:20;97040.09;;;25.70;55.67
10014;BME280;45684;48.358;10.746;2022-10-17T12:35:49;97031.78;;;25.74;54.87
10014;BME280;45684;48.358;10.746;2022-10-17T12:38:20;97034.19;;;25.79;55.88
10014;BME280;45684;48.358;10.746;2022-10-17T12:40:51;97028.19;;;25.74;56.23
10014;BME280;45684;48.358;10.746;2022-10-17T12:43:53;97035.69;;;25.52;58.25
10014;BME280;45684;48.358;10.746;2022-10-17T12:46:45;97033.28;;;25.32;58.05
10014;BME280;45684;48.358;10.746;2022-10-17T12:49:35;97024.97;;;25.29;59.84
10014;BME280;45684;48.358;10.746;2022-10-17T12:52:25;97025.72;;;25.22;55.74
10014;BME280;45684;48.358;10.746;2022-10-17T12:55:13;97033.63;;;25.09;55.00
10014;BME280;45684;48.358;10.746;2022-10-17T12:57:47;97021.28;;;25.03;56.71
10014;BME280;45684;48.358;10.746;2022-10-17T13:00:22;97027.13;;;24.84;59.88
10014;BME280;45684;48.358;10.746;2022-10-17T13:02:53;97035.41;;;24.73;61.60
10014;BME280;45684;48.358;10.746;2022-10-17T13:05:26;97032.94;;;24.54;60.71
10014;BME280;45684;48.358;10.746;2022-10-17T13:07:56;97035.56;;;24.36;62.59
10014;BME280;45684;48.358;10.746;2022-10-17T13:10:27;97028.75;;;24.23;60.72
10014;BME280;45684;48.358;10.746;2022-10-17T13:13:03;97028.56;;;24.01;62.52